createdAt,value
2019-05-09T00:01:43.740Z,10
2019-05-09T00:06:43.116Z,10
2019-05-09T00:11:41.150Z,10
2019-05-09T00:16:43.768Z,10
2019-05-09T00:21:43.540Z,10
2019-05-09T00:26:41.142Z,10
2019-05-09T00:31:43.692Z,10
2019-05-09T00:36:43.252Z,10.1
2019-05-09T00:41:43.421Z,10.1
2019-05-09T00:46:43.011Z,10.1
2019-05-09T00:51:43.619Z,10.1
2019-05-09T00:56:43.445Z,10.1
2019-05-09T01:01:40.981Z,10.1
2019-05-09T01:06:43.260Z,10.1
2019-05-09T01:11:40.835Z,10.1
2019-05-09T01:16:41.383Z,10.1
2019-05-09T01:21:40.847Z,10.1
2019-05-09T01:26:43.363Z,10.1
2019-05-09T01:31:41.001Z,10.1
2019-05-09T01:36:43.391Z,10.1
2019-05-09T01:41:41.027Z,10.1
2019-05-09T01:46:43.493Z,10.1
2019-05-09T01:51:40.915Z,10.1
2019-05-09T01:56:43.057Z,10
2019-05-09T02:01:43.424Z,10
2019-05-09T02:06:41.104Z,9.9
2019-05-09T02:11:44.965Z,9.9
2019-05-09T02:16:43.112Z,9.9
2019-05-09T02:21:43.754Z,9.9
2019-05-09T02:26:43.747Z,9.8
2019-05-09T02:31:44.554Z,9.8
2019-05-09T02:36:41.265Z,9.7
2019-05-09T02:41:59.433Z,9.7
2019-05-09T02:46:41.152Z,9.7
2019-05-09T02:51:41.520Z,9.7
2019-05-09T02:56:41.666Z,9.6
2019-05-09T03:01:41.050Z,9.6
2019-05-09T03:06:41.531Z,9.6
2019-05-09T03:11:40.994Z,9.6
2019-05-09T03:16:41.347Z,9.4
2019-05-09T03:21:41.782Z,9.4
2019-05-09T03:26:41.026Z,9.3
2019-05-09T03:31:41.484Z,9.3
2019-05-09T03:36:41.775Z,9.2
2019-05-09T03:41:41.131Z,9.2
2019-05-09T03:46:41.360Z,9.1
2019-05-09T03:51:41.784Z,9.1
2019-05-09T03:56:41.373Z,9
2019-05-09T04:01:41.757Z,9
2019-05-09T04:06:41.257Z,8.9
2019-05-09T04:11:41.513Z,8.9
2019-05-09T04:16:41.873Z,8.9
2019-05-09T04:21:41.214Z,8.9
2019-05-09T04:26:41.652Z,8.9
2019-05-09T04:31:41.700Z,8.9
2019-05-09T04:36:41.205Z,8.9
2019-05-09T04:41:41.590Z,8.9
2019-05-09T04:46:40.885Z,8.9
2019-05-09T04:51:41.448Z,8.9
2019-05-09T04:56:41.680Z,8.9
2019-05-09T05:01:41.850Z,8.9
2019-05-09T05:06:41.305Z,9
2019-05-09T05:11:41.651Z,9
2019-05-09T05:16:40.987Z,9.1
2019-05-09T05:21:41.323Z,9.1
2019-05-09T05:26:41.584Z,9.3
2019-05-09T05:31:40.977Z,9.3
2019-05-09T05:36:41.628Z,9.4
2019-05-09T05:41:41.970Z,9.4
2019-05-09T05:46:41.634Z,9.6
2019-05-09T05:51:41.205Z,9.6
2019-05-09T05:56:41.834Z,9.8
2019-05-09T06:01:41.319Z,9.8
2019-05-09T06:06:41.660Z,9.9
2019-05-09T06:11:41.033Z,9.9
2019-05-09T06:16:41.932Z,10
2019-05-09T06:21:41.028Z,10
2019-05-09T06:26:41.308Z,10.1
2019-05-09T06:31:41.521Z,10.1
2019-05-09T06:36:41.868Z,10.2
2019-05-09T06:41:41.458Z,10.2
2019-05-09T06:46:41.890Z,10.2
2019-05-09T06:51:41.560Z,10.2
2019-05-09T06:56:41.177Z,10.3
2019-05-09T07:01:41.523Z,10.3
2019-05-09T07:06:41.961Z,10.3
2019-05-09T07:11:41.540Z,10.3
2019-05-09T07:16:41.757Z,10.4
2019-05-09T07:21:41.430Z,10.4
2019-05-09T07:26:41.958Z,10.6
2019-05-09T07:31:41.376Z,10.6
2019-05-09T07:36:41.316Z,10.8
2019-05-09T07:41:41.736Z,10.8
2019-05-09T07:46:42.075Z,10.9
2019-05-09T07:51:41.528Z,10.9
2019-05-09T07:56:42.004Z,11.1
2019-05-09T08:01:41.454Z,11.1
2019-05-09T08:06:42.138Z,11.3
2019-05-09T08:11:41.358Z,11.3
2019-05-09T08:16:41.648Z,11.8
2019-05-09T08:21:41.164Z,11.8
2019-05-09T08:26:41.556Z,11.9
2019-05-09T08:31:45.302Z,11.9
2019-05-09T08:36:41.956Z,11.9
2019-05-09T08:41:41.470Z,11.9
2019-05-09T08:46:41.859Z,12.6
2019-05-09T08:51:56.163Z,12.6
2019-05-09T08:56:42.102Z,12.9
2019-05-09T09:01:49.502Z,12.9
2019-05-09T09:06:41.346Z,13.9
2019-05-09T09:11:41.883Z,13.9
2019-05-09T09:16:41.904Z,14.3
2019-05-09T09:21:41.427Z,14.3
2019-05-09T09:26:41.750Z,14.2
2019-05-09T09:31:42.046Z,14.2
2019-05-09T09:36:41.695Z,14
2019-05-09T09:41:42.080Z,14
2019-05-09T09:46:41.370Z,13.9
2019-05-09T09:51:41.396Z,13.9
2019-05-09T09:56:41.466Z,13.8
2019-05-09T10:01:41.702Z,13.8
2019-05-09T10:06:42.168Z,14.4
2019-05-09T10:11:41.458Z,14.4
2019-05-09T10:16:41.881Z,15.1
2019-05-09T10:21:41.370Z,15.1
2019-05-09T10:26:41.827Z,14.9
2019-05-09T10:31:42.244Z,14.9
2019-05-09T10:36:41.891Z,15.1
2019-05-09T10:41:42.298Z,15.1
2019-05-09T10:46:52.778Z,15.1
2019-05-09T10:51:41.765Z,15.1
2019-05-09T10:56:41.671Z,15.4
2019-05-09T11:01:42.173Z,15.4
2019-05-09T11:06:41.782Z,15.4
2019-05-09T11:11:40.866Z,15.4
2019-05-09T11:16:46.056Z,15.8
2019-05-09T11:21:42.247Z,15.8
2019-05-09T11:26:41.631Z,16.7
2019-05-09T11:31:42.350Z,16.7
2019-05-09T11:36:41.884Z,17.4
2019-05-09T11:41:42.215Z,17.4
2019-05-09T11:46:41.606Z,17.1
2019-05-09T11:51:42.371Z,17.1
2019-05-09T11:56:41.938Z,16.1
2019-05-09T12:01:42.290Z,16.1
2019-05-09T12:06:41.866Z,15.3
2019-05-09T12:11:44.614Z,15.3
2019-05-09T12:16:41.744Z,14.9
2019-05-09T12:21:47.455Z,14.9
2019-05-09T12:26:42.399Z,15.3
2019-05-09T12:31:41.742Z,15.3
2019-05-09T12:36:42.347Z,15.6
2019-05-09T12:41:41.752Z,15.6
2019-05-09T12:46:42.204Z,15.5
2019-05-09T12:51:41.532Z,15.5
2019-05-09T12:56:42.014Z,15.3
2019-05-09T13:01:42.349Z,15.3
2019-05-09T13:06:41.923Z,16.3
2019-05-09T13:11:41.665Z,16.3
2019-05-09T13:16:49.243Z,16.6
2019-05-09T13:21:41.742Z,16.6
2019-05-09T13:26:42.047Z,16.5
2019-05-09T13:31:41.673Z,16.5
2019-05-09T13:36:42.199Z,16.4
2019-05-09T13:41:42.327Z,16.4
2019-05-09T13:46:41.599Z,17.2
2019-05-09T13:51:48.689Z,17.2
2019-05-09T13:56:41.905Z,17.4
2019-05-09T14:01:42.281Z,17.4
2019-05-09T14:06:41.689Z,17.4
2019-05-09T14:11:42.555Z,17.4
2019-05-09T14:16:41.881Z,17.6
2019-05-09T14:21:42.191Z,17.6
2019-05-09T14:26:42.492Z,17.4
2019-05-09T14:31:41.874Z,17.4
2019-05-09T14:36:45.630Z,17.8
2019-05-09T14:41:41.675Z,17.8
2019-05-09T14:46:42.011Z,17.6
2019-05-09T14:51:42.422Z,17.6
2019-05-09T14:56:42.776Z,17.2
2019-05-09T15:01:43.952Z,17.2
2019-05-09T15:06:42.035Z,17.5
2019-05-09T15:11:41.936Z,17.5
2019-05-09T15:16:42.517Z,17.7
2019-05-09T15:21:41.920Z,17.7
2019-05-09T15:26:42.272Z,17.7
2019-05-09T15:31:41.720Z,17.7
2019-05-09T15:36:42.207Z,17.5
2019-05-09T15:41:41.677Z,17.5
2019-05-09T15:46:41.977Z,17.2
2019-05-09T15:51:42.543Z,17.2
2019-05-09T15:56:44.171Z,16.6
2019-05-09T16:01:41.809Z,16.6
2019-05-09T16:06:42.233Z,16.1
2019-05-09T16:11:42.642Z,16.1
2019-05-09T16:16:41.998Z,15.8
2019-05-09T16:21:42.439Z,15.8
2019-05-09T16:26:41.842Z,15.7
2019-05-09T16:31:42.200Z,15.7
2019-05-09T16:36:42.677Z,15.5
2019-05-09T16:41:42.039Z,15.5
2019-05-09T16:46:42.347Z,15.5
2019-05-09T16:51:41.812Z,15.5
2019-05-09T16:56:42.247Z,15.5
2019-05-09T17:01:46.397Z,15.5
2019-05-09T17:06:41.793Z,15.4
2019-05-09T17:11:42.226Z,15.4
2019-05-09T17:16:41.981Z,15.4
2019-05-09T17:21:42.352Z,15.4
2019-05-09T17:26:41.758Z,15.3
2019-05-09T17:31:42.177Z,15.3
2019-05-09T17:36:42.530Z,15.3
2019-05-09T17:41:41.993Z,15.3
2019-05-09T17:46:42.328Z,15.3
2019-05-09T17:51:42.705Z,15.3
2019-05-09T17:56:42.021Z,15.3
2019-05-09T18:01:42.427Z,15.3
2019-05-09T18:06:41.957Z,15.2
2019-05-09T18:11:41.811Z,15.2
2019-05-09T18:16:42.208Z,15.1
2019-05-09T18:21:50.654Z,15.1
2019-05-09T18:26:42.568Z,15
2019-05-09T18:31:41.895Z,15
2019-05-09T18:36:42.363Z,14.8
2019-05-09T18:41:42.728Z,14.8
2019-05-09T18:46:42.127Z,14.7
2019-05-09T18:51:42.675Z,14.7
2019-05-09T18:56:41.973Z,14.4
2019-05-09T19:01:42.622Z,14.4
2019-05-09T19:06:42.293Z,14.3
2019-05-09T19:11:42.112Z,14.3
2019-05-09T19:16:42.268Z,14.1
2019-05-09T19:21:42.691Z,14.1
2019-05-09T19:26:42.151Z,13.8
2019-05-09T19:31:42.607Z,13.8
2019-05-09T19:36:42.197Z,13.7
2019-05-09T19:41:42.535Z,13.7
2019-05-09T19:46:42.838Z,13.5
2019-05-09T19:51:42.220Z,13.5
2019-05-09T19:56:42.469Z,13.3
2019-05-09T20:01:41.940Z,13.3
2019-05-09T20:06:42.482Z,13.2
2019-05-09T20:11:42.343Z,13.2
2019-05-09T20:16:42.671Z,13.1
2019-05-09T20:21:42.092Z,13.1
2019-05-09T20:26:42.551Z,12.9
2019-05-09T20:31:42.861Z,12.9
2019-05-09T20:36:42.507Z,12.8
2019-05-09T20:41:42.943Z,12.8
2019-05-09T20:46:42.226Z,12.7
2019-05-09T20:51:42.559Z,12.7
2019-05-09T20:56:41.996Z,12.4
2019-05-09T21:01:42.408Z,12.4
2019-05-09T21:06:42.223Z,12.2
2019-05-09T21:11:42.176Z,12.2
2019-05-09T21:16:42.919Z,11.9
2019-05-09T21:21:42.388Z,11.9
2019-05-09T21:26:42.672Z,11.7
2019-05-09T21:31:42.160Z,11.7
2019-05-09T21:36:42.639Z,11.5
2019-05-09T21:41:42.350Z,11.5
2019-05-09T21:46:42.789Z,11.4
2019-05-09T21:51:42.195Z,11.4
2019-05-09T21:56:42.649Z,11.3
2019-05-09T22:01:42.132Z,11.3
2019-05-09T22:06:42.772Z,11.3
2019-05-09T22:11:42.629Z,11.3
2019-05-09T22:16:42.282Z,11.3
2019-05-09T22:21:42.480Z,11.3
2019-05-09T22:26:42.853Z,11.3
2019-05-09T22:31:42.396Z,11.3
2019-05-09T22:36:42.312Z,11.3
2019-05-09T22:41:42.586Z,11.3
2019-05-09T22:46:42.870Z,11.2
2019-05-09T22:51:42.263Z,11.2
2019-05-09T22:56:42.609Z,11.2
2019-05-09T23:01:42.939Z,11.2
2019-05-09T23:06:42.580Z,11.2
2019-05-09T23:11:42.322Z,11.2
2019-05-09T23:16:42.827Z,11.1
2019-05-09T23:21:42.436Z,11.1
2019-05-09T23:26:42.749Z,11
2019-05-09T23:31:42.184Z,11
2019-05-09T23:36:42.595Z,10.9
2019-05-09T23:41:42.998Z,10.9
2019-05-09T23:46:42.388Z,10.8
2019-05-09T23:51:42.827Z,10.8
2019-05-09T23:56:43.245Z,10.8
